createdAt,value
2018-05-18T00:02:28.114Z,64.53
2018-05-18T00:04:56.237Z,64.48
2018-05-18T00:07:24.367Z,64.08
2018-05-18T00:09:52.514Z,63.68
2018-05-18T00:12:20.655Z,63.65
2018-05-18T00:14:48.761Z,63.77
2018-05-18T00:17:16.893Z,64.14
2018-05-18T00:19:45.031Z,64.21
2018-05-18T00:22:13.176Z,64.52
2018-05-18T00:24:41.323Z,64.55
2018-05-18T00:27:09.494Z,64.90
2018-05-18T00:29:37.628Z,64.17
2018-05-18T00:32:05.776Z,64.30
2018-05-18T00:34:33.887Z,64.29
2018-05-18T00:37:02.049Z,64.29
2018-05-18T00:39:30.200Z,64.46
2018-05-18T00:41:58.309Z,64.62
2018-05-18T00:44:26.439Z,64.47
2018-05-18T00:46:54.861Z,64.16
2018-05-18T00:49:22.992Z,64.66
2018-05-18T00:51:51.106Z,64.23
2018-05-18T00:54:19.252Z,64.32
2018-05-18T00:56:47.373Z,63.90
2018-05-18T00:59:15.696Z,63.80
2018-05-18T01:01:43.829Z,63.85
2018-05-18T01:04:11.957Z,64.38
2018-05-18T01:06:40.081Z,63.88
2018-05-18T01:09:08.436Z,64.41
2018-05-18T01:11:36.554Z,64.61
2018-05-18T01:14:04.696Z,64.50
2018-05-18T01:16:32.833Z,64.48
2018-05-18T01:19:00.957Z,64.58
2018-05-18T01:21:29.096Z,63.85
2018-05-18T01:23:57.257Z,64.01
2018-05-18T01:26:25.381Z,64.11
2018-05-18T01:28:53.525Z,63.96
2018-05-18T01:31:21.687Z,65.02
2018-05-18T01:33:49.799Z,64.12
2018-05-18T01:36:18.511Z,64.29
2018-05-18T01:38:46.638Z,64.09
2018-05-18T01:41:14.751Z,63.91
2018-05-18T01:43:42.922Z,63.91
2018-05-18T01:46:11.241Z,64.16
2018-05-18T01:48:39.347Z,64.32
2018-05-18T01:51:07.468Z,64.38
2018-05-18T01:53:35.621Z,64.29
2018-05-18T01:56:03.716Z,63.93
2018-05-18T01:58:31.852Z,63.56
2018-05-18T02:00:59.966Z,63.53
2018-05-18T02:03:28.095Z,63.46
2018-05-18T02:05:56.211Z,63.56
2018-05-18T02:08:24.349Z,63.49
2018-05-18T02:10:52.467Z,62.98
2018-05-18T02:13:20.584Z,63.34
2018-05-18T02:15:48.748Z,63.65
2018-05-18T02:18:16.875Z,63.54
2018-05-18T02:20:44.996Z,63.33
2018-05-18T02:23:13.323Z,63.53
2018-05-18T02:25:41.435Z,63.07
2018-05-18T02:28:09.561Z,63.05
2018-05-18T02:30:37.723Z,62.97
2018-05-18T02:33:05.841Z,63.37
2018-05-18T02:35:33.980Z,63.00
2018-05-18T02:38:02.261Z,62.96
2018-05-18T02:40:30.406Z,63.28
2018-05-18T02:42:58.535Z,62.84
2018-05-18T02:45:26.799Z,62.77
2018-05-18T02:47:54.952Z,62.46
2018-05-18T02:50:23.080Z,62.33
2018-05-18T02:52:51.201Z,61.86
2018-05-18T02:55:19.380Z,61.88
2018-05-18T02:57:47.506Z,61.26
2018-05-18T03:00:15.635Z,61.58
2018-05-18T03:02:44.187Z,61.07
2018-05-18T03:05:12.423Z,60.86
2018-05-18T03:07:41.101Z,61.17
2018-05-18T03:10:09.249Z,61.39
2018-05-18T03:12:37.376Z,61.11
2018-05-18T03:15:05.522Z,62.11
2018-05-18T03:17:33.640Z,61.95
2018-05-18T03:20:01.771Z,61.41
2018-05-18T03:22:29.911Z,61.29
2018-05-18T03:24:58.033Z,61.49
2018-05-18T03:27:26.147Z,61.36
2018-05-18T03:29:54.297Z,62.08
2018-05-18T03:32:22.411Z,61.74
2018-05-18T03:34:50.545Z,62.02
2018-05-18T03:37:18.877Z,61.70
2018-05-18T03:39:47.068Z,61.77
2018-05-18T03:42:15.241Z,62.18
2018-05-18T03:44:43.365Z,61.47
2018-05-18T03:47:11.576Z,61.89
2018-05-18T03:49:39.701Z,61.49
2018-05-18T03:52:07.832Z,62.16
2018-05-18T03:54:35.954Z,61.92
2018-05-18T03:57:04.083Z,60.78
2018-05-18T03:59:32.213Z,61.76
2018-05-18T04:02:12.364Z,60.57
2018-05-18T04:08:11.069Z,60.86
2018-05-18T04:10:39.188Z,61.45
2018-05-18T04:13:07.343Z,61.42
2018-05-18T04:15:35.443Z,60.98
2018-05-18T04:18:03.582Z,61.26
2018-05-18T04:20:31.691Z,61.60
2018-05-18T04:22:59.867Z,60.79
2018-05-18T04:25:27.942Z,61.03
2018-05-18T04:27:56.055Z,61.24
2018-05-18T04:30:24.231Z,61.82
2018-05-18T04:32:52.305Z,61.23
2018-05-18T04:35:20.429Z,61.23
2018-05-18T04:37:48.558Z,61.63
2018-05-18T04:40:16.694Z,60.80
2018-05-18T04:42:44.829Z,61.30
2018-05-18T04:45:12.949Z,61.22
2018-05-18T04:47:41.074Z,61.34
2018-05-18T04:50:09.218Z,60.90
2018-05-18T04:52:37.344Z,60.96
2018-05-18T04:55:05.472Z,61.18
2018-05-18T04:57:33.616Z,61.09
2018-05-18T05:00:01.727Z,59.80
2018-05-18T05:02:29.861Z,60.84
2018-05-18T05:04:57.981Z,61.17
2018-05-18T05:07:26.119Z,61.29
2018-05-18T05:09:54.276Z,61.26
2018-05-18T05:12:22.400Z,60.88
2018-05-18T05:14:50.512Z,60.69
2018-05-18T05:17:18.833Z,60.49
2018-05-18T05:19:46.959Z,60.70
2018-05-18T05:22:15.083Z,60.09
2018-05-18T05:24:43.208Z,60.83
2018-05-18T05:27:11.334Z,60.51
2018-05-18T05:29:39.446Z,60.43
2018-05-18T05:32:07.615Z,61.45
2018-05-18T05:34:35.741Z,65.48
2018-05-18T05:37:04.030Z,60.94
2018-05-18T05:39:32.169Z,60.54
2018-05-18T05:42:00.285Z,60.53
2018-05-18T05:44:28.399Z,59.76
2018-05-18T05:46:56.927Z,60.24
2018-05-18T05:49:25.011Z,59.70
2018-05-18T05:51:53.133Z,60.32
2018-05-18T05:54:21.269Z,59.98
2018-05-18T05:56:49.397Z,60.38
2018-05-18T05:59:17.539Z,60.32
2018-05-18T06:01:45.659Z,60.10
2018-05-18T06:04:13.778Z,59.58
2018-05-18T06:06:41.901Z,60.21
2018-05-18T06:09:10.064Z,60.52
2018-05-18T06:11:38.199Z,60.71
2018-05-18T06:14:06.321Z,60.60
2018-05-18T06:16:35.167Z,60.48
2018-05-18T06:19:03.315Z,60.60
2018-05-18T06:21:31.453Z,60.59
2018-05-18T06:23:59.593Z,59.49
2018-05-18T06:26:27.720Z,59.63
2018-05-18T06:28:55.908Z,59.32
2018-05-18T06:31:24.064Z,60.18
2018-05-18T06:33:52.203Z,60.09
2018-05-18T06:36:20.325Z,59.40
2018-05-18T06:38:48.480Z,59.26
2018-05-18T06:41:16.629Z,59.12
2018-05-18T06:43:44.748Z,58.74
2018-05-18T06:46:12.877Z,58.96
2018-05-18T06:48:41.020Z,59.14
2018-05-18T06:51:09.137Z,59.00
2018-05-18T06:53:37.255Z,59.12
2018-05-18T06:56:05.367Z,58.18
2018-05-18T06:58:37.237Z,58.04
2018-05-18T07:01:05.315Z,58.16
2018-05-18T07:03:33.440Z,58.00
2018-05-18T07:06:01.573Z,58.21
2018-05-18T07:08:29.822Z,59.20
2018-05-18T07:10:57.940Z,58.57
2018-05-18T07:13:26.058Z,59.00
2018-05-18T07:15:54.205Z,58.55
2018-05-18T07:18:22.330Z,59.02
2018-05-18T07:20:50.458Z,59.07
2018-05-18T07:23:18.624Z,59.64
2018-05-18T07:25:46.771Z,59.10
2018-05-18T07:28:14.888Z,58.95
2018-05-18T07:30:43.209Z,58.66
2018-05-18T07:33:11.323Z,58.64
2018-05-18T07:35:39.440Z,58.82
2018-05-18T07:38:07.582Z,58.65
2018-05-18T07:40:35.698Z,58.19
2018-05-18T07:43:03.962Z,58.01
2018-05-18T07:45:32.272Z,57.78
2018-05-18T07:48:00.426Z,58.01
2018-05-18T07:50:28.549Z,58.63
2018-05-18T07:52:56.688Z,59.98
2018-05-18T07:55:24.827Z,56.93
2018-05-18T07:57:52.963Z,57.57
2018-05-18T08:00:21.110Z,57.66
2018-05-18T08:02:49.215Z,58.41
2018-05-18T08:05:17.359Z,58.46
2018-05-18T08:07:45.536Z,57.77
2018-05-18T08:10:13.628Z,56.92
2018-05-18T08:12:41.765Z,56.85
2018-05-18T08:15:09.976Z,56.26
2018-05-18T08:17:38.030Z,56.37
2018-05-18T08:20:06.166Z,56.82
2018-05-18T08:22:34.289Z,56.87
2018-05-18T08:25:02.407Z,56.57
2018-05-18T08:27:30.535Z,56.06
2018-05-18T08:29:58.883Z,55.58
2018-05-18T08:32:26.996Z,56.46
2018-05-18T08:34:55.165Z,56.60
2018-05-18T08:37:23.434Z,56.90
2018-05-18T08:39:51.565Z,56.76
2018-05-18T08:42:19.708Z,57.85
2018-05-18T08:44:47.848Z,57.25
2018-05-18T08:47:15.974Z,57.21
2018-05-18T08:49:44.103Z,56.56
2018-05-18T08:52:13.037Z,57.36
2018-05-18T08:54:41.165Z,57.54
2018-05-18T08:57:09.300Z,57.28
2018-05-18T08:59:37.456Z,57.59
2018-05-18T09:02:05.573Z,57.64
2018-05-18T09:04:33.684Z,57.12
2018-05-18T09:07:01.829Z,56.94
2018-05-18T09:09:29.938Z,57.08
2018-05-18T09:11:58.073Z,56.78
2018-05-18T09:14:26.391Z,56.51
2018-05-18T09:16:54.529Z,56.04
2018-05-18T09:19:22.663Z,56.35
2018-05-18T09:21:50.789Z,56.53
2018-05-18T09:24:18.914Z,56.25
2018-05-18T09:26:47.044Z,56.01
2018-05-18T09:29:15.155Z,55.38
2018-05-18T09:31:43.300Z,55.53
2018-05-18T09:34:11.508Z,55.75
2018-05-18T09:36:39.770Z,55.11
2018-05-18T09:39:07.886Z,55.51
2018-05-18T09:41:36.003Z,55.10
2018-05-18T09:44:04.141Z,55.15
2018-05-18T09:46:32.261Z,55.81
2018-05-18T09:49:00.389Z,55.61
2018-05-18T09:51:28.529Z,55.96
2018-05-18T09:53:56.646Z,55.86
2018-05-18T09:56:24.788Z,55.55
2018-05-18T09:58:52.936Z,54.15
2018-05-18T10:01:21.064Z,54.75
2018-05-18T10:03:49.170Z,54.63
2018-05-18T10:06:17.309Z,54.54
2018-05-18T10:08:45.439Z,54.98
2018-05-18T10:11:13.572Z,53.66
2018-05-18T10:13:41.714Z,53.56
2018-05-18T10:16:09.819Z,54.18
2018-05-18T10:18:37.946Z,53.64
2018-05-18T10:21:06.088Z,53.98
2018-05-18T10:23:34.213Z,53.31
2018-05-18T10:26:02.319Z,52.81
2018-05-18T10:28:30.451Z,52.88
2018-05-18T10:30:58.591Z,51.90
2018-05-18T10:33:26.714Z,52.84
2018-05-18T10:35:54.853Z,52.33
2018-05-18T10:38:22.979Z,51.82
2018-05-18T10:40:51.109Z,51.81
2018-05-18T10:43:19.234Z,53.08
2018-05-18T10:45:47.355Z,52.89
2018-05-18T10:48:15.468Z,53.00
2018-05-18T10:50:46.549Z,51.89
2018-05-18T10:53:14.699Z,52.91
2018-05-18T10:55:42.804Z,53.60
2018-05-18T10:58:11.253Z,52.31
2018-05-18T11:00:39.373Z,52.78
2018-05-18T11:03:07.504Z,53.46
2018-05-18T11:05:35.622Z,53.31
2018-05-18T11:08:03.760Z,52.99
2018-05-18T11:10:31.881Z,53.24
2018-05-18T11:13:00.029Z,52.40
2018-05-18T11:15:28.170Z,53.49
2018-05-18T11:17:56.304Z,52.99
2018-05-18T11:20:24.420Z,52.94
2018-05-18T11:22:52.546Z,53.13
2018-05-18T11:25:20.661Z,53.02
2018-05-18T11:27:48.800Z,52.94
2018-05-18T11:30:16.918Z,51.48
2018-05-18T11:32:45.045Z,52.60
2018-05-18T11:35:13.162Z,51.44
2018-05-18T11:37:41.335Z,50.38
2018-05-18T11:40:09.468Z,50.62
2018-05-18T11:42:37.612Z,54.00
2018-05-18T11:45:05.738Z,49.99
2018-05-18T11:47:33.887Z,50.65
2018-05-18T11:50:02.005Z,49.05
2018-05-18T11:52:30.142Z,49.43
2018-05-18T11:54:58.312Z,48.75
2018-05-18T11:57:26.489Z,49.92
2018-05-18T11:59:54.609Z,49.75
2018-05-18T12:02:22.727Z,48.64
2018-05-18T12:04:50.853Z,49.75
2018-05-18T12:07:18.985Z,49.78
2018-05-18T12:09:47.107Z,49.82
2018-05-18T12:12:15.238Z,49.49
2018-05-18T12:14:43.365Z,49.33
2018-05-18T12:17:11.492Z,49.32
2018-05-18T12:19:39.625Z,49.36
2018-05-18T12:22:07.749Z,48.82
2018-05-18T12:24:35.858Z,49.41
2018-05-18T12:27:04.009Z,49.19
2018-05-18T12:29:32.219Z,50.13
2018-05-18T12:32:00.360Z,50.24
2018-05-18T12:34:28.521Z,48.79
2018-05-18T12:36:56.619Z,49.07
2018-05-18T12:39:24.762Z,46.37
2018-05-18T12:41:52.875Z,46.77
2018-05-18T12:44:21.014Z,47.45
2018-05-18T12:46:49.145Z,48.06
2018-05-18T12:49:17.307Z,47.02
2018-05-18T12:51:45.474Z,46.87
2018-05-18T12:54:13.597Z,47.10
2018-05-18T12:56:41.752Z,47.03
2018-05-18T12:59:09.880Z,46.09
2018-05-18T13:01:38.005Z,47.15
2018-05-18T13:04:06.169Z,46.06
2018-05-18T13:06:34.299Z,45.87
2018-05-18T13:09:02.422Z,47.08
2018-05-18T13:11:30.534Z,47.16
2018-05-18T13:13:58.665Z,45.54
2018-05-18T13:16:26.785Z,46.90
2018-05-18T13:18:54.906Z,45.97
2018-05-18T13:21:23.033Z,45.77
2018-05-18T13:23:51.161Z,46.25
2018-05-18T13:26:19.320Z,47.00
2018-05-18T13:28:47.460Z,47.38
2018-05-18T13:31:15.574Z,46.60
2018-05-18T13:33:43.700Z,46.13
2018-05-18T13:36:11.835Z,46.28
2018-05-18T13:38:39.988Z,46.21
2018-05-18T13:41:08.111Z,46.85
2018-05-18T13:43:36.237Z,47.40
2018-05-18T13:46:04.365Z,46.52
2018-05-18T13:48:32.697Z,46.09
2018-05-18T13:51:00.831Z,45.77
2018-05-18T13:53:28.971Z,45.88
2018-05-18T13:55:57.304Z,45.85
2018-05-18T13:58:25.446Z,46.22
2018-05-18T14:00:53.591Z,46.76
2018-05-18T14:03:21.796Z,45.71
2018-05-18T14:05:49.895Z,46.15
2018-05-18T14:08:18.045Z,46.77
2018-05-18T14:10:46.196Z,45.95
2018-05-18T14:13:14.390Z,46.83
2018-05-18T14:15:42.573Z,47.44
2018-05-18T14:18:10.691Z,46.92
2018-05-18T14:20:38.815Z,47.36
2018-05-18T14:23:06.941Z,46.86
2018-05-18T14:25:35.096Z,46.78
2018-05-18T14:28:03.217Z,47.20
2018-05-18T14:30:31.341Z,47.16
2018-05-18T14:32:59.512Z,46.02
2018-05-18T14:35:27.638Z,46.39
2018-05-18T14:37:55.863Z,46.89
2018-05-18T14:40:24.031Z,48.01
2018-05-18T14:42:52.153Z,47.85
2018-05-18T14:45:20.273Z,47.85
2018-05-18T14:47:48.410Z,47.17
2018-05-18T14:50:16.551Z,47.61
2018-05-18T14:52:44.671Z,47.67
2018-05-18T14:55:12.803Z,47.82
2018-05-18T14:57:41.015Z,47.46
2018-05-18T15:00:09.145Z,47.64
2018-05-18T15:02:37.288Z,47.87
2018-05-18T15:05:05.413Z,47.73
2018-05-18T15:07:33.547Z,47.53
2018-05-18T15:10:01.714Z,48.14
2018-05-18T15:12:29.834Z,48.64
2018-05-18T15:14:57.979Z,48.11
2018-05-18T15:17:27.195Z,48.33
2018-05-18T15:19:55.360Z,47.92
2018-05-18T15:22:26.810Z,50.30
2018-05-18T15:24:58.778Z,48.51
2018-05-18T15:27:26.799Z,48.19
2018-05-18T15:29:55.054Z,48.40
2018-05-18T15:32:23.190Z,48.55
2018-05-18T15:34:51.493Z,49.43
2018-05-18T15:37:19.732Z,49.39
2018-05-18T15:39:47.820Z,48.89
2018-05-18T15:42:15.944Z,47.66
2018-05-18T15:44:44.047Z,47.71
2018-05-18T15:47:12.237Z,48.81
2018-05-18T15:49:40.341Z,48.78
2018-05-18T15:52:08.451Z,49.32
2018-05-18T15:54:36.584Z,49.22
2018-05-18T15:57:04.724Z,49.49
2018-05-18T15:59:32.858Z,49.54
2018-05-18T16:02:01.027Z,49.35
2018-05-18T16:04:29.145Z,51.10
2018-05-18T16:06:57.282Z,49.43
2018-05-18T16:09:25.469Z,49.74
2018-05-18T16:11:53.670Z,49.52
2018-05-18T16:14:22.070Z,50.35
2018-05-18T16:16:50.215Z,50.02
2018-05-18T16:19:18.333Z,49.96
2018-05-18T16:21:46.464Z,50.22
2018-05-18T16:24:15.628Z,50.05
2018-05-18T16:26:43.742Z,52.63
2018-05-18T16:29:11.888Z,52.64
2018-05-18T16:31:40.030Z,52.52
2018-05-18T16:34:08.148Z,50.10
2018-05-18T16:36:36.254Z,48.95
2018-05-18T16:39:04.394Z,49.78
2018-05-18T16:41:36.283Z,49.24
2018-05-18T16:44:04.419Z,49.52
2018-05-18T16:46:32.544Z,49.02
2018-05-18T16:49:00.669Z,49.18
2018-05-18T16:51:28.794Z,49.41
2018-05-18T16:53:56.952Z,49.34
2018-05-18T16:56:25.088Z,49.86
2018-05-18T16:58:53.222Z,49.23
2018-05-18T17:01:21.356Z,49.49
2018-05-18T17:03:49.491Z,49.57
2018-05-18T17:06:17.623Z,50.00
2018-05-18T17:08:45.743Z,49.73
2018-05-18T17:11:14.078Z,49.67
2018-05-18T17:13:42.211Z,49.80
2018-05-18T17:16:10.354Z,50.25
2018-05-18T17:18:38.488Z,49.24
2018-05-18T17:21:06.631Z,49.33
2018-05-18T17:23:34.996Z,49.63
2018-05-18T17:26:03.113Z,50.10
2018-05-18T17:28:31.235Z,50.71
2018-05-18T17:30:59.374Z,50.77
2018-05-18T17:33:27.503Z,50.62
2018-05-18T17:35:55.643Z,50.68
2018-05-18T17:38:23.777Z,50.99
2018-05-18T17:40:51.893Z,51.52
2018-05-18T17:43:20.009Z,51.26
2018-05-18T17:45:48.145Z,51.54
2018-05-18T17:48:18.163Z,51.12
2018-05-18T17:50:46.316Z,51.85
2018-05-18T17:53:14.453Z,52.09
2018-05-18T17:55:42.592Z,52.22
2018-05-18T17:58:10.714Z,52.55
2018-05-18T18:00:38.871Z,51.96
2018-05-18T18:03:07.004Z,51.82
2018-05-18T18:05:35.134Z,51.76
2018-05-18T18:08:03.265Z,52.16
2018-05-18T18:10:31.394Z,52.00
2018-05-18T18:12:59.532Z,52.20
2018-05-18T18:15:27.646Z,52.35
2018-05-18T18:17:55.778Z,52.22
2018-05-18T18:20:23.875Z,52.54
2018-05-18T18:22:52.004Z,52.62
2018-05-18T18:25:20.129Z,52.91
2018-05-18T18:27:48.272Z,52.80
2018-05-18T18:30:16.405Z,52.87
2018-05-18T18:32:44.526Z,53.13
2018-05-18T18:35:12.664Z,53.78
2018-05-18T18:37:40.779Z,53.52
2018-05-18T18:40:08.890Z,53.46
2018-05-18T18:42:37.024Z,53.42
2018-05-18T18:45:05.153Z,53.66
2018-05-18T18:47:33.400Z,53.22
2018-05-18T18:50:01.531Z,53.43
2018-05-18T18:52:29.653Z,53.04
2018-05-18T18:54:57.760Z,53.12
2018-05-18T18:57:25.905Z,53.04
2018-05-18T18:59:54.047Z,52.56
2018-05-18T19:02:22.178Z,52.96
2018-05-18T19:04:50.298Z,53.08
2018-05-18T19:07:18.588Z,52.87
2018-05-18T19:09:46.724Z,52.62
2018-05-18T19:12:14.827Z,52.62
2018-05-18T19:14:42.952Z,52.79
2018-05-18T19:17:11.078Z,52.77
2018-05-18T19:19:39.194Z,52.84
2018-05-18T19:22:07.333Z,52.97
2018-05-18T19:24:35.457Z,53.68
2018-05-18T19:27:03.605Z,53.87
2018-05-18T19:29:31.719Z,53.71
2018-05-18T19:31:59.860Z,53.79
2018-05-18T19:34:27.991Z,54.48
2018-05-18T19:36:56.298Z,54.60
2018-05-18T19:39:24.419Z,54.72
2018-05-18T19:41:52.976Z,54.93
2018-05-18T19:44:22.275Z,55.59
2018-05-18T19:46:50.413Z,55.18
2018-05-18T19:49:18.532Z,57.95
2018-05-18T19:51:47.148Z,55.61
2018-05-18T19:54:15.284Z,55.59
2018-05-18T19:56:43.427Z,55.79
2018-05-18T19:59:11.567Z,55.32
2018-05-18T20:01:39.676Z,54.97
2018-05-18T20:04:07.827Z,54.89
2018-05-18T20:06:35.948Z,55.22
2018-05-18T20:09:04.071Z,54.79
2018-05-18T20:11:32.305Z,55.19
2018-05-18T20:14:00.473Z,55.20
2018-05-18T20:16:28.612Z,55.60
2018-05-18T20:18:56.707Z,55.51
2018-05-18T20:21:24.842Z,55.46
2018-05-18T20:23:52.975Z,55.44
2018-05-18T20:26:21.115Z,55.38
2018-05-18T20:28:49.254Z,55.67
2018-05-18T20:31:17.389Z,56.09
2018-05-18T20:33:45.520Z,56.19
2018-05-18T20:36:13.638Z,56.28
2018-05-18T20:38:41.787Z,56.94
2018-05-18T20:41:09.921Z,56.39
2018-05-18T20:43:38.062Z,56.65
2018-05-18T20:46:06.183Z,57.11
2018-05-18T20:48:34.302Z,57.00
2018-05-18T20:51:02.723Z,57.07
2018-05-18T20:53:30.870Z,57.19
2018-05-18T20:55:58.988Z,57.08
2018-05-18T20:58:27.209Z,57.35
2018-05-18T21:00:55.236Z,57.57
2018-05-18T21:03:23.381Z,57.61
2018-05-18T21:05:51.507Z,57.57
2018-05-18T21:08:19.726Z,58.11
2018-05-18T21:10:47.824Z,58.39
2018-05-18T21:13:16.045Z,58.41
2018-05-18T21:15:44.178Z,58.42
2018-05-18T21:18:12.293Z,58.20
2018-05-18T21:20:40.460Z,58.75
2018-05-18T21:23:08.562Z,59.23
2018-05-18T21:25:36.725Z,59.34
2018-05-18T21:28:04.871Z,58.96
2018-05-18T21:30:33.059Z,59.01
2018-05-18T21:33:01.113Z,59.48
2018-05-18T21:35:29.253Z,60.23
2018-05-18T21:37:57.355Z,59.92
2018-05-18T21:40:25.480Z,59.81
2018-05-18T21:42:53.623Z,60.36
2018-05-18T21:45:21.733Z,60.44
2018-05-18T21:47:49.862Z,60.29
2018-05-18T21:50:18.020Z,61.06
2018-05-18T21:52:46.155Z,60.51
2018-05-18T21:55:14.301Z,60.33
2018-05-18T21:57:42.541Z,60.46
2018-05-18T22:00:10.647Z,61.03
2018-05-18T22:02:38.750Z,61.28
2018-05-18T22:05:06.884Z,61.16
2018-05-18T22:07:35.017Z,61.12
2018-05-18T22:10:03.118Z,61.46
2018-05-18T22:12:31.258Z,61.43
2018-05-18T22:14:59.385Z,61.04
2018-05-18T22:17:27.513Z,60.97
2018-05-18T22:19:55.645Z,61.68
2018-05-18T22:22:23.797Z,61.43
2018-05-18T22:24:51.919Z,61.23
2018-05-18T22:27:20.038Z,61.26
2018-05-18T22:29:48.219Z,61.78
2018-05-18T22:32:16.376Z,61.94
2018-05-18T22:34:44.491Z,61.54
2018-05-18T22:37:12.614Z,61.95
2018-05-18T22:39:40.741Z,61.67
2018-05-18T22:42:08.859Z,62.19
2018-05-18T22:44:37.003Z,62.82
2018-05-18T22:47:05.129Z,63.03
2018-05-18T22:49:33.247Z,63.09
2018-05-18T22:52:01.381Z,63.62
2018-05-18T22:54:29.520Z,63.74
2018-05-18T22:56:57.638Z,63.82
2018-05-18T22:59:25.890Z,64.09
2018-05-18T23:01:54.039Z,64.21
2018-05-18T23:04:22.191Z,64.67
2018-05-18T23:06:50.302Z,64.50
2018-05-18T23:09:18.431Z,64.37
2018-05-18T23:11:46.815Z,64.45
2018-05-18T23:14:14.936Z,64.17
2018-05-18T23:16:43.061Z,64.69
2018-05-18T23:19:11.202Z,64.43
2018-05-18T23:21:39.319Z,65.13
2018-05-18T23:24:07.446Z,65.17
2018-05-18T23:26:35.592Z,64.78
2018-05-18T23:29:03.719Z,64.93
2018-05-18T23:31:31.849Z,64.98
2018-05-18T23:34:00.195Z,65.57
2018-05-18T23:36:28.333Z,65.52
2018-05-18T23:38:56.451Z,66.18
2018-05-18T23:41:24.603Z,66.54
2018-05-18T23:43:52.712Z,66.58
2018-05-18T23:46:20.833Z,67.25
2018-05-18T23:48:48.955Z,67.10
2018-05-18T23:51:17.058Z,66.94
2018-05-18T23:53:45.166Z,67.32
2018-05-18T23:56:13.339Z,67.50
2018-05-18T23:58:41.457Z,67.77
